createdAt,value
2019-03-23T00:01:36.556Z,28.60
2019-03-23T00:04:05.692Z,27.97
2019-03-23T00:06:34.172Z,27.33
2019-03-23T00:09:03.976Z,28.67
2019-03-23T00:11:32.182Z,29.40
2019-03-23T00:14:00.659Z,31.20
2019-03-23T00:16:29.577Z,30.23
2019-03-23T00:18:57.726Z,32.60
2019-03-23T00:21:26.509Z,31.30
2019-03-23T00:23:54.541Z,31.83
2019-03-23T00:26:23.249Z,31.30
2019-03-23T00:28:51.513Z,30.13
2019-03-23T00:31:20.194Z,31.70
2019-03-23T00:33:48.504Z,30.47
2019-03-23T00:36:16.789Z,29.53
2019-03-23T00:38:44.875Z,32.43
2019-03-23T00:41:13.008Z,36.20
2019-03-23T00:43:42.140Z,38.30
2019-03-23T00:46:10.406Z,36.80
2019-03-23T00:48:38.680Z,39.33
2019-03-23T00:51:06.620Z,39.30
2019-03-23T00:53:35.542Z,38.60
2019-03-23T00:56:04.067Z,38.33
2019-03-23T00:58:32.483Z,39.30
2019-03-23T01:01:00.550Z,41.87
2019-03-23T01:03:29.089Z,43.50
2019-03-23T01:05:57.635Z,44.10
2019-03-23T01:08:27.042Z,42.73
2019-03-23T01:10:55.069Z,42.63
2019-03-23T01:13:23.184Z,43.17
2019-03-23T01:15:51.493Z,44.63
2019-03-23T01:18:20.245Z,42.87
2019-03-23T01:20:50.099Z,45.33
2019-03-23T01:23:18.450Z,44.40
2019-03-23T01:25:46.942Z,50.07
2019-03-23T01:28:15.020Z,49.30
2019-03-23T01:30:44.602Z,49.30
2019-03-23T01:33:13.619Z,46.47
2019-03-23T01:35:41.629Z,47.90
2019-03-23T01:38:10.252Z,46.23
2019-03-23T01:40:38.941Z,49.13
2019-03-23T01:43:10.408Z,43.00
2019-03-23T01:45:39.427Z,48.47
2019-03-23T01:48:07.775Z,47.27
2019-03-23T01:50:36.545Z,48.47
2019-03-23T01:53:05.121Z,46.27
2019-03-23T01:55:34.233Z,48.13
2019-03-23T01:58:02.918Z,51.33
2019-03-23T02:00:31.275Z,49.40
2019-03-23T02:02:59.877Z,50.20
2019-03-23T02:05:28.045Z,52.57
2019-03-23T02:07:56.958Z,52.13
2019-03-23T02:10:25.069Z,53.60
2019-03-23T02:12:54.413Z,51.97
2019-03-23T02:15:22.755Z,55.93
2019-03-23T02:17:52.124Z,49.80
2019-03-23T02:20:20.273Z,56.93
2019-03-23T02:22:51.317Z,53.40
2019-03-23T02:25:20.297Z,57.27
2019-03-23T02:27:48.792Z,56.90
2019-03-23T02:30:17.478Z,52.37
2019-03-23T02:32:46.249Z,52.30
2019-03-23T02:35:15.038Z,56.40
2019-03-23T02:37:43.429Z,56.10
2019-03-23T02:40:12.151Z,53.80
2019-03-23T02:42:40.517Z,54.87
2019-03-23T02:45:09.225Z,52.27
2019-03-23T02:47:37.304Z,54.47
2019-03-23T02:50:06.361Z,52.33
2019-03-23T02:52:34.724Z,52.03
2019-03-23T02:55:03.559Z,52.77
2019-03-23T02:57:32.291Z,51.87
2019-03-23T03:00:00.696Z,46.20
2019-03-23T03:02:29.335Z,50.57
2019-03-23T03:04:57.536Z,53.60
2019-03-23T03:07:25.629Z,56.00
2019-03-23T03:09:54.425Z,54.67
2019-03-23T03:12:22.665Z,53.10
2019-03-23T03:14:51.029Z,52.87
2019-03-23T03:17:19.972Z,51.47
2019-03-23T03:19:48.047Z,49.23
2019-03-23T03:22:16.817Z,50.37
2019-03-23T03:24:45.160Z,54.73
2019-03-23T03:27:13.950Z,54.23
2019-03-23T03:29:42.489Z,54.50
2019-03-23T03:32:11.034Z,50.00
2019-03-23T03:34:39.987Z,51.40
2019-03-23T03:37:08.583Z,50.37
2019-03-23T03:39:36.883Z,53.90
2019-03-23T03:42:05.440Z,53.93
2019-03-23T03:44:34.008Z,57.17
2019-03-23T03:47:02.158Z,49.23
2019-03-23T03:49:30.300Z,50.17
2019-03-23T03:51:59.494Z,49.60
2019-03-23T03:54:27.880Z,51.80
2019-03-23T03:56:56.646Z,53.27
2019-03-23T03:59:25.733Z,52.10
2019-03-23T04:01:54.088Z,49.33
2019-03-23T04:04:22.820Z,52.90
2019-03-23T04:06:51.836Z,52.90
2019-03-23T04:09:20.181Z,57.07
2019-03-23T04:11:48.134Z,54.90
2019-03-23T04:14:17.335Z,57.33
2019-03-23T04:16:45.863Z,55.43
2019-03-23T04:19:14.222Z,57.80
2019-03-23T04:21:43.066Z,62.03
2019-03-23T04:24:11.905Z,57.53
2019-03-23T04:26:40.885Z,49.47
2019-03-23T04:29:09.280Z,57.57
2019-03-23T04:31:37.668Z,61.30
2019-03-23T04:34:06.318Z,57.20
2019-03-23T04:36:34.953Z,55.57
2019-03-23T04:39:05.261Z,52.97
2019-03-23T04:41:34.019Z,55.40
2019-03-23T04:44:02.315Z,53.77
2019-03-23T04:46:31.748Z,51.17
2019-03-23T04:49:00.258Z,59.90
2019-03-23T04:51:28.656Z,58.40
2019-03-23T04:53:56.989Z,55.63
2019-03-23T04:56:26.551Z,58.00
2019-03-23T04:58:55.195Z,53.47
2019-03-23T05:01:24.044Z,58.23
2019-03-23T05:03:52.524Z,55.13
2019-03-23T05:06:20.857Z,50.03
2019-03-23T05:08:50.706Z,52.13
2019-03-23T05:11:29.090Z,48.57
2019-03-23T05:13:59.186Z,57.00
2019-03-23T05:16:35.150Z,51.80
2019-03-23T05:19:11.155Z,51.23
2019-03-23T05:21:47.616Z,48.13
2019-03-23T05:24:22.418Z,50.37
2019-03-23T05:26:54.956Z,45.87
2019-03-23T05:29:32.919Z,52.03
2019-03-23T05:32:39.028Z,50.17
2019-03-23T05:35:46.751Z,48.67
2019-03-23T05:38:21.972Z,47.30
2019-03-23T05:40:59.634Z,45.77
2019-03-23T05:43:32.071Z,50.93
2019-03-23T05:46:02.296Z,51.93
2019-03-23T05:48:31.480Z,46.20
2019-03-23T05:51:06.962Z,50.50
2019-03-23T05:53:38.909Z,46.80
2019-03-23T05:56:18.629Z,43.73
2019-03-23T05:58:49.722Z,45.80
2019-03-23T06:01:35.487Z,42.60
2019-03-23T06:04:05.515Z,45.80
2019-03-23T06:06:50.700Z,43.57
2019-03-23T06:09:19.921Z,58.70
2019-03-23T06:12:20.867Z,56.80
2019-03-23T06:14:56.982Z,45.87
2019-03-23T06:17:33.125Z,46.10
2019-03-23T06:20:04.627Z,43.77
2019-03-23T06:22:33.800Z,43.70
2019-03-23T06:25:07.582Z,42.13
2019-03-23T06:27:35.774Z,44.20
2019-03-23T06:30:06.506Z,42.07
2019-03-23T06:32:35.200Z,43.60
2019-03-23T06:35:04.311Z,39.27
2019-03-23T06:37:33.384Z,39.43
2019-03-23T06:40:02.011Z,39.63
2019-03-23T06:42:31.071Z,40.50
2019-03-23T06:44:59.635Z,36.90
2019-03-23T06:47:28.509Z,44.30
2019-03-23T06:49:56.749Z,48.70
2019-03-23T06:52:26.518Z,41.90
2019-03-23T06:54:55.021Z,42.03
2019-03-23T06:57:24.204Z,40.70
2019-03-23T06:59:59.017Z,41.40
2019-03-23T07:02:27.871Z,39.63
2019-03-23T07:05:00.177Z,39.77
2019-03-23T07:07:29.140Z,38.20
2019-03-23T07:09:58.384Z,40.30
2019-03-23T07:12:29.798Z,37.17
2019-03-23T07:14:58.621Z,37.97
2019-03-23T07:17:27.674Z,37.70
2019-03-23T07:19:56.300Z,39.30
2019-03-23T07:22:25.012Z,39.33
2019-03-23T07:24:53.875Z,36.57
2019-03-23T07:27:26.009Z,36.97
2019-03-23T07:29:55.219Z,38.73
2019-03-23T07:32:25.131Z,38.33
2019-03-23T07:34:54.403Z,36.00
2019-03-23T07:37:25.199Z,35.90
2019-03-23T07:39:54.429Z,36.87
2019-03-23T07:42:23.875Z,38.83
2019-03-23T07:44:52.904Z,34.30
2019-03-23T07:47:21.420Z,100.20
2019-03-23T07:49:49.966Z,76.83
2019-03-23T07:52:18.556Z,56.93
2019-03-23T07:54:48.349Z,47.20
2019-03-23T07:57:18.563Z,40.13
2019-03-23T07:59:47.468Z,37.60
2019-03-23T08:02:15.749Z,38.87
2019-03-23T08:04:44.534Z,38.57
2019-03-23T08:07:13.210Z,37.10
2019-03-23T08:09:43.457Z,33.60
2019-03-23T08:12:14.984Z,35.60
2019-03-23T08:14:45.614Z,36.63
2019-03-23T08:17:15.026Z,35.90
2019-03-23T08:19:45.117Z,34.13
2019-03-23T08:22:23.410Z,34.40
2019-03-23T08:24:51.755Z,34.40
2019-03-23T08:27:21.420Z,39.77
2019-03-23T08:30:19.441Z,47.73
2019-03-23T08:32:49.945Z,40.10
2019-03-23T08:35:18.861Z,39.03
2019-03-23T08:37:47.469Z,36.60
2019-03-23T08:40:17.524Z,33.03
2019-03-23T08:42:46.110Z,31.00
2019-03-23T08:45:14.651Z,33.20
2019-03-23T08:47:47.048Z,31.43
2019-03-23T08:50:16.238Z,31.67
2019-03-23T08:52:45.599Z,31.80
2019-03-23T08:55:13.880Z,33.33
2019-03-23T08:57:43.020Z,32.00
2019-03-23T09:00:13.098Z,31.87
2019-03-23T09:02:41.669Z,31.47
2019-03-23T09:05:10.510Z,29.37
2019-03-23T09:07:39.312Z,28.20
2019-03-23T09:10:08.520Z,30.83
2019-03-23T09:12:39.366Z,31.37
2019-03-23T09:15:08.431Z,29.37
2019-03-23T09:17:37.423Z,29.07
2019-03-23T09:20:10.006Z,30.77
2019-03-23T09:22:38.555Z,30.00
2019-03-23T09:25:08.571Z,31.47
2019-03-23T09:27:37.475Z,32.47
2019-03-23T09:30:08.333Z,29.97
2019-03-23T09:32:37.454Z,29.83
2019-03-23T09:35:06.846Z,28.30
2019-03-23T09:37:38.152Z,31.50
2019-03-23T09:40:10.964Z,46.93
2019-03-23T09:42:37.933Z,36.77
2019-03-23T09:45:08.489Z,34.50
2019-03-23T09:47:37.565Z,32.90
2019-03-23T09:50:09.614Z,28.23
2019-03-23T09:52:38.141Z,29.10
2019-03-23T09:55:14.716Z,28.83
2019-03-23T09:57:44.428Z,29.43
2019-03-23T10:00:14.190Z,27.80
2019-03-23T10:02:43.177Z,28.47
2019-03-23T10:05:11.860Z,31.40
2019-03-23T10:07:43.230Z,29.40
2019-03-23T10:10:21.238Z,31.73
2019-03-23T10:12:42.742Z,31.43
2019-03-23T10:15:11.176Z,29.93
2019-03-23T10:17:39.749Z,28.70
2019-03-23T10:20:08.388Z,30.13
2019-03-23T10:22:37.093Z,29.73
2019-03-23T10:25:05.986Z,29.67
2019-03-23T10:27:35.193Z,29.50
2019-03-23T10:30:06.884Z,33.90
2019-03-23T10:32:35.240Z,29.60
2019-03-23T10:35:04.919Z,32.47
2019-03-23T10:37:33.146Z,33.07
2019-03-23T10:40:01.831Z,33.53
2019-03-23T10:42:30.367Z,30.30
2019-03-23T10:44:58.621Z,32.90
2019-03-23T10:47:27.044Z,31.60
2019-03-23T10:49:56.086Z,34.50
2019-03-23T10:52:24.773Z,29.83
2019-03-23T10:54:53.370Z,31.17
2019-03-23T10:57:22.258Z,29.67
2019-03-23T10:59:50.884Z,30.83
2019-03-23T11:02:19.734Z,30.37
2019-03-23T11:04:48.674Z,28.20
2019-03-23T11:07:17.391Z,30.10
2019-03-23T11:09:46.492Z,32.23
2019-03-23T11:12:15.926Z,32.57
2019-03-23T11:14:44.519Z,31.10
2019-03-23T11:17:13.576Z,32.20
2019-03-23T11:19:42.207Z,31.33
2019-03-23T11:22:11.974Z,33.00
2019-03-23T11:24:41.146Z,35.27
2019-03-23T11:27:10.610Z,33.40
2019-03-23T11:29:39.206Z,32.17
2019-03-23T11:32:07.742Z,30.17
2019-03-23T11:34:36.193Z,34.37
2019-03-23T11:37:04.860Z,33.37
2019-03-23T11:39:34.019Z,35.27
2019-03-23T11:42:02.596Z,34.90
2019-03-23T11:44:30.902Z,34.27
2019-03-23T11:46:59.558Z,34.20
2019-03-23T11:49:29.050Z,34.60
2019-03-23T11:51:57.402Z,34.00
2019-03-23T11:54:25.640Z,36.67
2019-03-23T11:56:54.890Z,37.57
2019-03-23T11:59:23.319Z,33.77
2019-03-23T12:01:52.183Z,34.10
2019-03-23T12:04:24.886Z,31.67
2019-03-23T12:06:53.642Z,34.50
2019-03-23T12:09:22.238Z,35.60
2019-03-23T12:11:51.144Z,37.40
2019-03-23T12:14:19.837Z,36.60
2019-03-23T12:16:48.358Z,36.53
2019-03-23T12:19:16.769Z,37.00
2019-03-23T12:21:45.244Z,33.80
2019-03-23T12:24:13.489Z,36.57
2019-03-23T12:26:42.382Z,35.67
2019-03-23T12:29:11.287Z,37.23
2019-03-23T12:31:40.092Z,37.53
2019-03-23T12:34:08.528Z,35.30
2019-03-23T12:36:37.054Z,33.57
2019-03-23T12:39:05.746Z,33.33
2019-03-23T12:41:34.450Z,35.20
2019-03-23T12:44:03.121Z,36.20
2019-03-23T12:46:31.953Z,34.80
2019-03-23T12:49:01.629Z,36.60
2019-03-23T12:51:30.194Z,31.47
2019-03-23T12:53:58.487Z,30.70
2019-03-23T12:56:27.651Z,32.93
2019-03-23T12:58:56.467Z,33.67
2019-03-23T13:01:24.940Z,34.87
2019-03-23T13:03:53.734Z,37.57
2019-03-23T13:06:27.196Z,36.10
2019-03-23T13:08:55.601Z,36.03
2019-03-23T13:11:31.098Z,34.23
2019-03-23T13:13:56.293Z,31.57
2019-03-23T13:16:24.635Z,28.00
2019-03-23T13:18:53.412Z,30.80
2019-03-23T13:21:21.736Z,36.97
2019-03-23T13:23:50.903Z,36.73
2019-03-23T13:26:19.397Z,38.00
2019-03-23T13:28:48.728Z,42.87
2019-03-23T13:31:17.759Z,37.17
2019-03-23T13:33:46.885Z,36.87
2019-03-23T13:36:16.779Z,38.77
2019-03-23T13:38:47.312Z,37.00
2019-03-23T13:41:16.350Z,34.30
2019-03-23T13:43:45.096Z,30.77
2019-03-23T13:46:14.092Z,33.33
2019-03-23T13:48:42.534Z,37.57
2019-03-23T13:51:11.574Z,35.13
2019-03-23T13:53:40.924Z,38.43
2019-03-23T13:56:10.247Z,36.47
2019-03-23T13:58:39.583Z,38.10
2019-03-23T14:01:09.784Z,36.70
2019-03-23T14:03:38.865Z,36.53
2019-03-23T14:06:07.677Z,35.13
2019-03-23T14:08:36.389Z,32.07
2019-03-23T14:11:04.912Z,36.20
2019-03-23T14:13:33.718Z,37.90
2019-03-23T14:16:02.113Z,33.57
2019-03-23T14:18:30.143Z,38.30
2019-03-23T14:21:01.427Z,36.13
2019-03-23T14:23:30.306Z,36.63
2019-03-23T14:26:02.631Z,38.40
2019-03-23T14:28:33.396Z,33.80
2019-03-23T14:31:01.425Z,37.37
2019-03-23T14:33:29.505Z,37.30
2019-03-23T14:35:58.057Z,36.50
2019-03-23T14:38:26.929Z,37.47
2019-03-23T14:40:55.611Z,34.20
2019-03-23T14:43:24.233Z,35.57
2019-03-23T14:45:53.315Z,37.40
2019-03-23T14:48:22.313Z,36.97
2019-03-23T14:50:51.655Z,36.50
2019-03-23T14:53:20.239Z,40.97
2019-03-23T14:55:48.443Z,51.70
2019-03-23T14:58:16.923Z,38.63
2019-03-23T15:00:47.047Z,37.50
2019-03-23T15:03:15.778Z,38.40
2019-03-23T15:05:44.655Z,40.13
2019-03-23T15:08:13.027Z,35.37
2019-03-23T15:10:41.684Z,38.87
2019-03-23T15:13:10.594Z,38.53
2019-03-23T15:15:39.369Z,39.10
2019-03-23T15:18:08.981Z,42.53
2019-03-23T15:20:37.305Z,42.33
2019-03-23T15:23:06.649Z,38.30
2019-03-23T15:25:34.893Z,36.23
2019-03-23T15:28:03.338Z,38.63
2019-03-23T15:30:34.769Z,38.90
2019-03-23T15:33:03.627Z,39.37
2019-03-23T15:35:36.330Z,39.63
2019-03-23T15:38:07.951Z,40.03
2019-03-23T15:40:36.546Z,39.87
2019-03-23T15:43:05.418Z,38.90
2019-03-23T15:45:34.349Z,39.50
2019-03-23T15:48:03.867Z,39.37
2019-03-23T15:50:33.625Z,39.03
2019-03-23T15:53:03.062Z,41.60
2019-03-23T15:55:32.179Z,43.60
2019-03-23T15:58:02.087Z,41.00
2019-03-23T16:00:31.629Z,41.60
2019-03-23T16:03:05.398Z,39.27
2019-03-23T16:05:36.746Z,38.57
2019-03-23T16:08:15.529Z,39.80
2019-03-23T16:10:49.803Z,37.40
2019-03-23T16:13:31.921Z,50.17
2019-03-23T16:16:00.841Z,63.83
2019-03-23T16:18:29.367Z,46.07
2019-03-23T16:20:58.620Z,41.23
2019-03-23T16:23:27.341Z,39.37
2019-03-23T16:26:01.914Z,39.77
2019-03-23T16:28:41.502Z,39.70
2019-03-23T16:31:11.827Z,39.40
2019-03-23T16:33:41.330Z,38.67
2019-03-23T16:36:10.864Z,41.57
2019-03-23T16:38:41.605Z,41.83
2019-03-23T16:41:11.857Z,41.17
2019-03-23T16:43:41.913Z,36.97
2019-03-23T16:46:11.681Z,42.70
2019-03-23T16:48:42.169Z,38.97
2019-03-23T16:51:11.996Z,42.27
2019-03-23T16:53:41.276Z,39.63
2019-03-23T16:56:10.901Z,38.00
2019-03-23T16:58:40.530Z,37.03
2019-03-23T17:01:09.722Z,39.83
2019-03-23T17:03:39.848Z,41.20
2019-03-23T17:06:09.731Z,38.33
2019-03-23T17:08:38.854Z,36.60
2019-03-23T17:11:08.091Z,38.30
2019-03-23T17:13:37.427Z,35.30
2019-03-23T17:16:11.146Z,41.87
2019-03-23T17:18:41.918Z,39.63
2019-03-23T17:21:11.876Z,45.27
2019-03-23T17:23:41.131Z,84.33
2019-03-23T17:26:10.389Z,61.70
2019-03-23T17:28:39.969Z,46.57
2019-03-23T17:31:12.148Z,38.73
2019-03-23T17:33:41.638Z,40.67
2019-03-23T17:36:10.464Z,38.30
2019-03-23T17:38:38.998Z,40.10
2019-03-23T17:41:10.228Z,40.57
2019-03-23T17:43:40.941Z,43.67
2019-03-23T17:46:10.530Z,39.80
2019-03-23T17:48:40.754Z,43.10
2019-03-23T17:51:09.758Z,42.50
2019-03-23T17:53:38.600Z,43.20
2019-03-23T17:56:10.317Z,40.80
2019-03-23T17:58:38.836Z,42.90
2019-03-23T18:01:19.021Z,40.83
2019-03-23T18:03:41.556Z,41.23
2019-03-23T18:06:11.390Z,41.50
2019-03-23T18:08:44.690Z,41.73
2019-03-23T18:11:14.297Z,46.93
2019-03-23T18:13:43.195Z,43.90
2019-03-23T18:16:11.752Z,41.60
2019-03-23T18:18:40.751Z,39.93
2019-03-23T18:21:09.542Z,38.20
2019-03-23T18:23:37.724Z,39.50
2019-03-23T18:26:06.480Z,37.03
2019-03-23T18:28:34.218Z,35.77
2019-03-23T18:31:02.531Z,35.87
2019-03-23T18:33:30.319Z,37.17
2019-03-23T18:35:58.346Z,36.67
2019-03-23T18:38:26.497Z,39.47
2019-03-23T18:40:54.574Z,36.50
2019-03-23T18:43:27.557Z,36.50
2019-03-23T18:45:52.357Z,35.47
2019-03-23T18:48:21.190Z,34.93
2019-03-23T18:50:49.060Z,35.00
2019-03-23T18:53:16.902Z,33.07
2019-03-23T18:55:45.292Z,27.63
2019-03-23T18:58:13.172Z,27.10
2019-03-23T19:00:42.501Z,25.23
2019-03-23T19:03:10.840Z,27.20
2019-03-23T19:05:38.700Z,24.80
2019-03-23T19:08:09.097Z,36.37
2019-03-23T19:10:37.185Z,33.20
2019-03-23T19:13:06.075Z,26.97
2019-03-23T19:15:34.285Z,24.40
2019-03-23T19:18:02.927Z,21.20
2019-03-23T19:20:31.389Z,18.87
2019-03-23T19:23:00.068Z,16.43
2019-03-23T19:25:28.552Z,16.43
2019-03-23T19:27:56.297Z,13.60
2019-03-23T19:30:24.541Z,14.80
2019-03-23T19:32:54.605Z,14.83
2019-03-23T19:35:23.084Z,13.97
2019-03-23T19:37:51.955Z,14.20
2019-03-23T19:40:19.933Z,12.80
2019-03-23T19:42:48.955Z,13.53
2019-03-23T19:45:18.808Z,14.27
2019-03-23T19:47:50.667Z,13.00
2019-03-23T19:50:19.966Z,13.43
2019-03-23T19:52:48.942Z,11.90
2019-03-23T19:55:18.293Z,12.43
2019-03-23T19:57:46.424Z,13.50
2019-03-23T20:00:17.705Z,11.23
2019-03-23T20:02:45.528Z,12.80
2019-03-23T20:05:16.241Z,12.40
2019-03-23T20:07:49.470Z,13.10
2019-03-23T20:10:17.400Z,12.10
2019-03-23T20:12:47.650Z,13.07
2019-03-23T20:15:16.188Z,14.33
2019-03-23T20:17:44.126Z,12.53
2019-03-23T20:20:12.156Z,13.00
2019-03-23T20:22:41.352Z,13.93
2019-03-23T20:25:09.932Z,13.67
2019-03-23T20:27:44.608Z,14.40
2019-03-23T20:30:13.545Z,13.97
2019-03-23T20:32:41.973Z,14.00
2019-03-23T20:35:10.514Z,15.40
2019-03-23T20:37:38.344Z,15.80
2019-03-23T20:40:08.670Z,15.40
2019-03-23T20:42:39.739Z,13.90
2019-03-23T20:45:10.577Z,14.50
2019-03-23T20:47:39.614Z,15.00
2019-03-23T20:50:08.243Z,15.00
2019-03-23T20:52:36.205Z,16.17
2019-03-23T20:55:04.395Z,14.80
2019-03-23T20:57:37.327Z,16.30
2019-03-23T21:00:03.489Z,16.20
2019-03-23T21:02:32.117Z,15.20
2019-03-23T21:05:01.086Z,14.90
2019-03-23T21:07:28.926Z,15.30
2019-03-23T21:09:56.940Z,15.40
2019-03-23T21:12:24.617Z,16.03
2019-03-23T21:14:52.628Z,14.80
2019-03-23T21:17:20.614Z,16.07
2019-03-23T21:19:48.920Z,15.83
2019-03-23T21:22:17.145Z,15.40
2019-03-23T21:24:44.852Z,14.93
2019-03-23T21:27:12.916Z,13.33
2019-03-23T21:29:41.266Z,14.63
2019-03-23T21:32:09.168Z,15.73
2019-03-23T21:34:36.937Z,16.20
2019-03-23T21:37:04.603Z,14.73
2019-03-23T21:39:32.940Z,16.63
2019-03-23T21:42:01.196Z,16.43
2019-03-23T21:44:31.318Z,15.10
2019-03-23T21:46:59.501Z,14.00
2019-03-23T21:49:27.491Z,14.00
2019-03-23T21:51:55.565Z,14.10
2019-03-23T21:54:23.851Z,13.00
2019-03-23T21:56:51.705Z,13.00
2019-03-23T21:59:19.685Z,12.90
2019-03-23T22:01:47.541Z,13.30
2019-03-23T22:04:15.258Z,13.70
2019-03-23T22:06:43.610Z,12.13
2019-03-23T22:09:11.955Z,10.93
2019-03-23T22:11:39.688Z,11.40
2019-03-23T22:14:07.385Z,11.17
2019-03-23T22:16:35.203Z,10.53
2019-03-23T22:19:03.535Z,10.10
2019-03-23T22:21:31.594Z,10.73
2019-03-23T22:23:59.168Z,9.73
2019-03-23T22:26:26.721Z,9.80
2019-03-23T22:28:54.430Z,9.70
2019-03-23T22:31:22.758Z,8.77
2019-03-23T22:33:50.884Z,8.00
2019-03-23T22:36:18.916Z,7.40
2019-03-23T22:38:46.488Z,8.37
2019-03-23T22:41:14.469Z,7.37
2019-03-23T22:43:42.150Z,7.30
2019-03-23T22:46:10.133Z,7.33
2019-03-23T22:48:37.763Z,7.00
2019-03-23T22:51:06.052Z,6.63
2019-03-23T22:53:33.584Z,6.00
2019-03-23T22:56:01.369Z,7.33
2019-03-23T22:58:29.244Z,6.50
2019-03-23T23:00:57.026Z,7.60
2019-03-23T23:03:25.114Z,6.47
2019-03-23T23:05:52.793Z,6.43
2019-03-23T23:08:21.106Z,5.90
2019-03-23T23:10:49.146Z,6.57
2019-03-23T23:13:17.249Z,6.87
2019-03-23T23:15:45.072Z,5.87
2019-03-23T23:18:13.050Z,6.00
2019-03-23T23:20:40.724Z,5.37
2019-03-23T23:23:09.024Z,5.13
2019-03-23T23:25:36.780Z,5.00
2019-03-23T23:28:04.714Z,6.00
2019-03-23T23:30:33.302Z,6.17
2019-03-23T23:33:01.233Z,5.10
2019-03-23T23:35:29.267Z,4.90
2019-03-23T23:37:57.266Z,5.20
2019-03-23T23:40:25.609Z,5.47
2019-03-23T23:42:53.510Z,4.70
2019-03-23T23:45:21.456Z,5.80
2019-03-23T23:47:49.185Z,5.90
2019-03-23T23:50:17.143Z,5.03
2019-03-23T23:52:45.060Z,5.00
2019-03-23T23:55:13.115Z,5.30
2019-03-23T23:57:41.276Z,4.47
